createdAt,value
2024-01-05T00:05:36.652Z,21.37
2024-01-05T00:11:53.903Z,19.55
2024-01-05T00:18:04.286Z,22.50
2024-01-05T00:24:07.099Z,19.25
2024-01-05T00:30:21.251Z,23.35
2024-01-05T00:36:23.710Z,17.17
2024-01-05T00:42:25.714Z,18.08
2024-01-05T00:48:27.946Z,17.67
2024-01-05T00:54:29.875Z,19.00
2024-01-05T01:00:32.210Z,22.90
2024-01-05T01:06:34.279Z,19.85
2024-01-05T01:12:37.108Z,19.48
2024-01-05T01:18:40.431Z,22.77
2024-01-05T01:24:42.603Z,22.17
2024-01-05T01:30:44.725Z,19.33
2024-01-05T01:36:46.876Z,19.05
2024-01-05T01:42:50.516Z,15.93
2024-01-05T01:48:53.529Z,15.75
2024-01-05T01:54:55.909Z,24.15
2024-01-05T02:00:57.947Z,20.20
2024-01-05T02:06:59.801Z,22.73
2024-01-05T02:13:02.070Z,17.50
2024-01-05T02:19:04.104Z,19.70
2024-01-05T02:25:06.436Z,18.58
2024-01-05T02:31:08.300Z,20.60
2024-01-05T02:37:10.957Z,16.55
2024-01-05T02:43:12.827Z,18.50
2024-01-05T02:49:14.781Z,17.30
2024-01-05T02:55:16.858Z,19.80
2024-01-05T03:01:20.660Z,20.90
2024-01-05T03:07:22.789Z,25.92
2024-01-05T03:13:25.185Z,23.55
2024-01-05T03:19:27.554Z,15.00
2024-01-05T03:25:33.899Z,23.58
2024-01-05T03:31:36.792Z,20.73
2024-01-05T03:37:38.856Z,20.50
2024-01-05T03:43:44.388Z,24.95
2024-01-05T03:49:49.693Z,15.70
2024-01-05T03:55:58.254Z,19.00
2024-01-05T04:02:07.373Z,18.48
2024-01-05T04:08:10.050Z,18.02
2024-01-05T04:14:15.230Z,20.17
2024-01-05T04:20:22.226Z,14.10
2024-01-05T04:26:24.291Z,22.88
2024-01-05T04:32:26.083Z,13.82
2024-01-05T04:38:30.029Z,15.40
2024-01-05T04:44:32.055Z,20.80
2024-01-05T04:50:33.840Z,17.85
2024-01-05T04:56:38.353Z,18.40
2024-01-05T05:02:40.587Z,18.08
2024-01-05T05:08:42.597Z,22.85
2024-01-05T05:14:45.228Z,21.20
2024-01-05T05:20:47.254Z,22.58
2024-01-05T05:26:49.235Z,20.05
2024-01-05T05:32:51.165Z,22.00
2024-01-05T05:38:52.985Z,34.67
2024-01-05T05:44:57.105Z,24.08
2024-01-05T05:51:08.652Z,21.15
2024-01-05T05:57:15.557Z,16.20
2024-01-05T06:03:17.443Z,26.63
2024-01-05T06:09:21.603Z,27.08
2024-01-05T06:15:32.657Z,22.40
2024-01-05T06:21:34.514Z,21.33
2024-01-05T06:27:39.297Z,27.05
2024-01-05T06:33:41.679Z,23.27
2024-01-05T06:39:43.908Z,26.55
2024-01-05T06:45:45.710Z,17.42
2024-01-05T06:51:47.704Z,19.50
2024-01-05T06:57:49.656Z,19.60
2024-01-05T07:03:51.692Z,23.38
2024-01-05T07:09:53.755Z,26.55
2024-01-05T07:15:56.331Z,18.58
2024-01-05T07:21:58.181Z,23.80
2024-01-05T07:27:59.956Z,24.67
2024-01-05T07:34:02.239Z,20.30
2024-01-05T07:40:05.092Z,19.30
2024-01-05T07:46:12.681Z,29.10
2024-01-05T07:52:39.401Z,18.83
2024-01-05T07:58:41.409Z,20.50
2024-01-05T08:04:43.142Z,22.77
2024-01-05T08:10:44.884Z,14.90
2024-01-05T08:16:46.680Z,18.30
2024-01-05T08:22:48.448Z,16.38
2024-01-05T08:28:50.283Z,12.77
2024-01-05T08:34:52.168Z,15.75
2024-01-05T08:40:54.214Z,17.75
2024-01-05T08:46:55.970Z,18.25
2024-01-05T08:52:58.586Z,16.27
2024-01-05T08:59:00.352Z,19.30
2024-01-05T09:05:02.130Z,20.70
2024-01-05T09:11:04.182Z,19.33
2024-01-05T09:17:06.706Z,14.85
2024-01-05T09:23:08.651Z,14.45
2024-01-05T09:29:10.382Z,16.00
2024-01-05T09:35:12.385Z,13.55
2024-01-05T09:41:14.566Z,11.27
2024-01-05T09:47:18.536Z,12.48
2024-01-05T09:53:20.798Z,14.90
2024-01-05T09:59:25.451Z,11.75
2024-01-05T10:05:27.513Z,10.27
2024-01-05T10:11:36.975Z,12.30
2024-01-05T10:17:40.169Z,11.65
2024-01-05T10:23:45.315Z,12.23
2024-01-05T10:29:56.922Z,18.90
2024-01-05T10:36:07.402Z,8.27
2024-01-05T10:42:26.250Z,15.30
2024-01-05T10:48:29.694Z,15.65
2024-01-05T10:54:35.431Z,12.45
2024-01-05T11:00:41.327Z,11.57
2024-01-05T11:06:44.701Z,12.93
2024-01-05T11:13:11.514Z,13.18
2024-01-05T11:19:50.631Z,14.80
2024-01-05T11:25:55.237Z,10.45
2024-01-05T11:31:57.386Z,13.55
2024-01-05T11:37:59.655Z,13.23
2024-01-05T11:44:26.405Z,14.85
2024-01-05T11:50:33.383Z,10.30
2024-01-05T11:56:35.248Z,12.63
2024-01-05T12:02:37.012Z,13.00
2024-01-05T12:08:39.769Z,11.25
2024-01-05T12:14:45.060Z,20.20
2024-01-05T12:20:46.919Z,9.90
2024-01-05T12:26:53.783Z,15.40
2024-01-05T12:32:55.970Z,13.10
2024-01-05T12:39:09.868Z,11.55
2024-01-05T12:45:11.874Z,14.90
2024-01-05T12:51:15.691Z,8.80
2024-01-05T13:00:52.911Z,10.25
2024-01-05T13:06:54.853Z,10.63
2024-01-05T13:12:57.265Z,8.77
2024-01-05T13:18:59.101Z,9.45
2024-01-05T13:25:00.951Z,9.38
2024-01-05T13:31:03.058Z,7.35
2024-01-05T13:37:04.843Z,9.95
2024-01-05T13:43:06.902Z,7.38
2024-01-05T13:49:08.813Z,7.57
2024-01-05T13:55:10.668Z,10.82
2024-01-05T15:03:38.754Z,8.80
2024-01-05T15:09:43.228Z,6.65
2024-01-05T15:15:45.708Z,3.17
2024-01-05T15:21:47.488Z,2.60
2024-01-05T15:27:51.533Z,3.80
2024-01-05T15:33:56.231Z,3.45
2024-01-05T15:39:59.894Z,5.50
2024-01-05T15:46:01.725Z,3.45
2024-01-05T15:52:03.826Z,2.90
2024-01-05T15:58:05.656Z,3.13
2024-01-05T16:04:07.633Z,4.03
2024-01-05T16:10:09.959Z,2.72
2024-01-05T16:16:21.485Z,3.22
2024-01-05T16:22:24.670Z,1.77
2024-01-05T16:28:26.917Z,4.85
2024-01-05T16:34:28.746Z,5.40
2024-01-05T16:40:30.986Z,9.60
2024-01-05T16:46:33.729Z,9.38
2024-01-05T16:52:35.585Z,7.13
2024-01-05T16:58:37.372Z,5.13
2024-01-05T17:04:39.409Z,6.50
2024-01-05T17:10:41.423Z,7.25
2024-01-05T17:16:51.967Z,7.15
2024-01-05T17:22:56.097Z,6.95
2024-01-05T17:36:59.856Z,9.95
2024-01-05T17:43:01.668Z,4.30
2024-01-05T17:49:04.393Z,6.88
2024-01-05T17:55:06.542Z,6.72
2024-01-05T18:01:10.840Z,2.80
2024-01-05T18:07:14.147Z,3.95
2024-01-05T18:13:16.617Z,6.10
2024-01-05T18:19:18.579Z,7.43
2024-01-05T18:25:20.456Z,2.92
2024-01-05T18:31:29.728Z,5.00
2024-01-05T18:54:54.621Z,3.42
2024-01-05T19:00:57.883Z,4.20
2024-01-05T19:07:00.000Z,6.18
2024-01-05T19:13:01.971Z,8.52
2024-01-05T19:19:04.399Z,8.48
2024-01-05T19:25:06.627Z,7.95
2024-01-05T19:31:08.516Z,4.13
2024-01-05T19:37:10.615Z,8.25
2024-01-05T19:43:12.759Z,3.55
2024-01-05T19:49:14.961Z,5.68
2024-01-05T19:55:16.998Z,6.70
2024-01-05T20:01:18.922Z,6.60
2024-01-05T20:07:21.028Z,3.03
2024-01-05T20:13:23.166Z,5.63
2024-01-05T20:19:25.257Z,4.85
2024-01-05T20:25:27.848Z,5.50
2024-01-05T20:31:31.372Z,3.40
2024-01-05T20:37:38.454Z,4.25
2024-01-05T20:43:45.345Z,4.27
2024-01-05T20:49:47.359Z,3.60
2024-01-05T20:55:50.100Z,6.18
2024-01-05T21:01:52.150Z,3.88
2024-01-05T21:07:54.243Z,5.57
2024-01-05T21:13:56.120Z,2.95
2024-01-05T21:19:58.186Z,2.40
2024-01-05T21:26:04.197Z,6.63
2024-01-05T21:32:06.326Z,2.85
2024-01-05T21:38:08.153Z,4.53
2024-01-05T21:44:10.548Z,3.85
2024-01-05T21:50:13.286Z,3.97
2024-01-05T21:56:15.192Z,6.55
2024-01-05T22:02:17.055Z,4.03
2024-01-05T22:08:19.016Z,8.63
2024-01-05T22:14:21.021Z,4.50
2024-01-05T22:20:24.673Z,4.80
2024-01-05T22:26:34.085Z,3.80
2024-01-05T22:32:35.915Z,3.80
2024-01-05T22:38:39.064Z,4.90
2024-01-05T22:44:42.862Z,3.08
2024-01-05T22:50:44.765Z,1.98
2024-01-05T22:56:49.667Z,4.20
2024-01-05T23:02:51.639Z,4.55
2024-01-05T23:08:53.485Z,5.45
2024-01-05T23:14:55.429Z,6.95
2024-01-05T23:20:57.331Z,3.03
2024-01-05T23:26:59.152Z,6.65
2024-01-05T23:33:01.255Z,8.02
2024-01-05T23:39:05.510Z,5.20
2024-01-05T23:45:08.533Z,3.60
2024-01-05T23:51:11.394Z,6.43
2024-01-05T23:57:13.558Z,2.50
